PWSweather.com
Personal Weather Stations
Station Observations

ChardChardGB

Lat: 50.877408, Lon: -2.94964741

Elevation: 341

Station Type: WS3083

http://www.merriott-astro.co.uk/weather/index.htm

High Low Average
Temperature 51.8°F11.0°C 46.2°F7.9°C 49.9°F9.9°C
Dew Point 46.8°F8.2°C 36.2°F2.3°C 40.9°F4.9°C
Winds 20.4 mph 32.8 kmh Calm Calm 9.0 mph SSW14.5 kmh SSW
Wind Gusts 30.4 mph48.9 kmh -- 13.0 mph20.9 kmh
Humidity 84% 60% 71%
Pressure 30.39 in1029.1 mb 29.87 in1011.5 mb -
Precipitation 0.20 in5.1 mm - -
Hour Temp Dew Point Humidity Winds Wind Gusts Pressure Precip Precip Rate Daily Precip Total
12:00 AM 46.6°F8.1°C 36.2°F2.3°C 67% 3.0 mph SW4.8 kmh SW 4.5 mph7.2 kmh 30.39 in1029.1 mb 0.00 in0.0 mm 0.00 in0.0 mm 0.00 in0.0 mm
12:10 AM 46.6°F8.1°C 36.6°F2.6°C 68% 2.2 mph SSW3.5 kmh SSW 3.8 mph6.1 kmh 30.39 in1029.1 mb 0.00 in0.0 mm 0.00 in0.0 mm 0.00 in0.0 mm
12:20 AM 46.4°F8.0°C 36.4°F2.4°C 68% 0.5 mph SW0.8 kmh SW 1.6 mph2.6 kmh 30.39 in1029.1 mb 0.00 in0.0 mm 0.00 in0.0 mm 0.00 in0.0 mm
12:30 AM 46.2°F7.9°C 36.6°F2.6°C 69% 1.4 mph S2.3 kmh S 1.6 mph2.6 kmh 30.38 in1028.8 mb 0.00 in0.0 mm 0.00 in0.0 mm 0.00 in0.0 mm
12:40 AM 46.2°F7.9°C 36.6°F2.6°C 69% 0.4 mph S0.6 kmh S 2.2 mph3.5 kmh 30.38 in1028.8 mb 0.00 in0.0 mm 0.00 in0.0 mm 0.00 in0.0 mm
12:50 AM 46.2°F7.9°C 37.0°F2.8°C 70% 0.1 mph SE0.2 kmh SE 0.7 mph1.1 kmh 30.38 in1028.8 mb 0.00 in0.0 mm 0.00 in0.0 mm 0.00 in0.0 mm
01:00 AM 46.2°F7.9°C 37.0°F2.8°C 70% 0.7 mph S1.1 kmh S 1.6 mph2.6 kmh 30.38 in1028.8 mb 0.00 in0.0 mm 0.00 in0.0 mm 0.00 in0.0 mm
01:10 AM 46.2°F7.9°C 37.0°F2.8°C 70% Calm Calm -- 30.37 in1028.4 mb 0.00 in0.0 mm 0.00 in0.0 mm 0.00 in0.0 mm
01:20 AM 46.2°F7.9°C 37.0°F2.8°C 70% 0.1 mph S0.2 kmh S 0.7 mph1.1 kmh 30.37 in1028.4 mb 0.00 in0.0 mm 0.00 in0.0 mm 0.00 in0.0 mm
01:30 AM 46.4°F8.0°C 37.2°F2.9°C 70% Calm Calm -- 30.36 in1028.1 mb 0.00 in0.0 mm 0.00 in0.0 mm 0.00 in0.0 mm
01:40 AM 46.6°F8.1°C 37.3°F2.9°C 70% Calm Calm -- 30.36 in1028.1 mb 0.00 in0.0 mm 0.00 in0.0 mm 0.00 in0.0 mm
01:50 AM 46.6°F8.1°C 37.3°F2.9°C 70% Calm Calm -- 30.35 in1027.8 mb 0.00 in0.0 mm 0.00 in0.0 mm 0.00 in0.0 mm
02:00 AM 47.1°F8.4°C 38.2°F3.4°C 71% 1.1 mph S1.8 kmh S 3.1 mph5.0 kmh 30.36 in1028.1 mb 0.00 in0.0 mm 0.00 in0.0 mm 0.00 in0.0 mm
02:10 AM 48.0°F8.9°C 39.1°F3.9°C 71% 2.3 mph S3.7 kmh S 3.8 mph6.1 kmh 30.36 in1028.1 mb 0.00 in0.0 mm 0.00 in0.0 mm 0.00 in0.0 mm
02:20 AM 48.4°F9.1°C 39.1°F3.9°C 70% 1.8 mph S2.9 kmh S 3.8 mph6.1 kmh 30.35 in1027.8 mb 0.00 in0.0 mm 0.00 in0.0 mm 0.00 in0.0 mm
02:30 AM 48.7°F9.3°C 39.4°F4.1°C 70% 3.0 mph SW4.8 kmh SW 4.5 mph7.2 kmh 30.35 in1027.8 mb 0.00 in0.0 mm 0.00 in0.0 mm 0.00 in0.0 mm
02:40 AM 49.1°F9.5°C 38.2°F3.4°C 66% 3.7 mph SW6.0 kmh SW 4.5 mph7.2 kmh 30.35 in1027.8 mb 0.00 in0.0 mm 0.00 in0.0 mm 0.00 in0.0 mm
02:50 AM 49.3°F9.6°C 38.0°F3.3°C 65% 3.4 mph SSW5.5 kmh SSW 4.5 mph7.2 kmh 30.34 in1027.4 mb 0.00 in0.0 mm 0.00 in0.0 mm 0.00 in0.0 mm
03:00 AM 49.3°F9.6°C 37.2°F2.9°C 63% 3.2 mph S5.1 kmh S 4.5 mph7.2 kmh 30.34 in1027.4 mb 0.00 in0.0 mm 0.00 in0.0 mm 0.00 in0.0 mm
03:10 AM 49.5°F9.7°C 37.4°F3.0°C 63% 3.1 mph SSW5.0 kmh SSW 6.0 mph9.7 kmh 30.33 in1027.1 mb 0.00 in0.0 mm 0.00 in0.0 mm 0.00 in0.0 mm
03:20 AM 49.6°F9.8°C 36.8°F2.7°C 61% 4.5 mph SW7.2 kmh SW 6.9 mph11.1 kmh 30.34 in1027.4 mb 0.00 in0.0 mm 0.00 in0.0 mm 0.00 in0.0 mm
03:30 AM 49.8°F9.9°C 36.5°F2.5°C 60% 3.8 mph SW6.1 kmh SW 6.9 mph11.1 kmh 30.33 in1027.1 mb 0.00 in0.0 mm 0.00 in0.0 mm 0.00 in0.0 mm
03:40 AM 50.0°F10.0°C 36.7°F2.6°C 60% 4.0 mph SSW6.4 kmh SSW 6.0 mph9.7 kmh 30.32 in1026.8 mb 0.00 in0.0 mm 0.00 in0.0 mm 0.00 in0.0 mm
03:50 AM 49.8°F9.9°C 36.5°F2.5°C 60% 3.9 mph S6.3 kmh S 5.4 mph8.7 kmh 30.33 in1027.1 mb 0.00 in0.0 mm 0.00 in0.0 mm 0.00 in0.0 mm
04:00 AM 49.6°F9.8°C 36.8°F2.7°C 61% 3.1 mph SW5.0 kmh SW 4.5 mph7.2 kmh 30.32 in1026.8 mb 0.00 in0.0 mm 0.00 in0.0 mm 0.00 in0.0 mm
04:10 AM 49.6°F9.8°C 36.8°F2.7°C 61% 3.2 mph S5.1 kmh S 4.5 mph7.2 kmh 30.32 in1026.8 mb 0.00 in0.0 mm 0.00 in0.0 mm 0.00 in0.0 mm
04:20 AM 49.6°F9.8°C 36.8°F2.7°C 61% 3.3 mph S5.3 kmh S 4.5 mph7.2 kmh 30.31 in1026.4 mb 0.00 in0.0 mm 0.00 in0.0 mm 0.00 in0.0 mm
04:30 AM 49.5°F9.7°C 36.6°F2.6°C 61% 2.9 mph S4.7 kmh S 4.5 mph7.2 kmh 30.31 in1026.4 mb 0.00 in0.0 mm 0.00 in0.0 mm 0.00 in0.0 mm
04:40 AM 49.3°F9.6°C 36.8°F2.7°C 62% 2.5 mph S4.0 kmh S 3.1 mph5.0 kmh 30.31 in1026.4 mb 0.00 in0.0 mm 0.00 in0.0 mm 0.00 in0.0 mm
04:50 AM 48.9°F9.4°C 36.5°F2.5°C 62% 1.6 mph SSW2.6 kmh SSW 3.1 mph5.0 kmh 30.30 in1026.1 mb 0.00 in0.0 mm 0.00 in0.0 mm 0.00 in0.0 mm
05:00 AM 48.7°F9.3°C 36.7°F2.6°C 63% 1.9 mph S3.1 kmh S 3.1 mph5.0 kmh 30.30 in1026.1 mb 0.00 in0.0 mm 0.00 in0.0 mm 0.00 in0.0 mm
05:10 AM 48.6°F9.2°C 36.9°F2.7°C 64% 1.0 mph S1.6 kmh S 2.2 mph3.5 kmh 30.30 in1026.1 mb 0.00 in0.0 mm 0.00 in0.0 mm 0.00 in0.0 mm
05:20 AM 48.7°F9.3°C 37.1°F2.8°C 64% 1.9 mph S3.1 kmh S 3.8 mph6.1 kmh 30.30 in1026.1 mb 0.00 in0.0 mm 0.00 in0.0 mm 0.00 in0.0 mm
05:30 AM 49.3°F9.6°C 38.0°F3.3°C 65% 4.0 mph S6.4 kmh S 6.0 mph9.7 kmh 30.30 in1026.1 mb 0.00 in0.0 mm 0.00 in0.0 mm 0.00 in0.0 mm
05:40 AM 49.5°F9.7°C 38.2°F3.4°C 65% 2.8 mph SSW4.5 kmh SSW 4.5 mph7.2 kmh 30.29 in1025.7 mb 0.00 in0.0 mm 0.00 in0.0 mm 0.00 in0.0 mm
05:50 AM 49.5°F9.7°C 38.2°F3.4°C 65% 2.5 mph S4.0 kmh S 3.8 mph6.1 kmh 30.29 in1025.7 mb 0.00 in0.0 mm 0.00 in0.0 mm 0.00 in0.0 mm
06:00 AM 49.3°F9.6°C 38.4°F3.6°C 66% 2.0 mph S3.2 kmh S 3.1 mph5.0 kmh 30.29 in1025.7 mb 0.00 in0.0 mm 0.00 in0.0 mm 0.00 in0.0 mm
06:10 AM 49.6°F9.8°C 38.8°F3.8°C 66% 3.4 mph SW5.5 kmh SW 5.4 mph8.7 kmh 30.30 in1026.1 mb 0.00 in0.0 mm 0.00 in0.0 mm 0.00 in0.0 mm
06:20 AM 50.0°F10.0°C 39.1°F3.9°C 66% 5.1 mph SSW8.2 kmh SSW 8.3 mph13.4 kmh 30.28 in1025.4 mb 0.00 in0.0 mm 0.00 in0.0 mm 0.00 in0.0 mm
06:30 AM 50.0°F10.0°C 39.5°F4.2°C 67% 6.1 mph SW9.8 kmh SW 7.6 mph12.2 kmh 30.29 in1025.7 mb 0.00 in0.0 mm 0.00 in0.0 mm 0.00 in0.0 mm
06:40 AM 49.8°F9.9°C 40.1°F4.5°C 69% 4.7 mph SW7.6 kmh SW 6.9 mph11.1 kmh 30.28 in1025.4 mb 0.00 in0.0 mm 0.00 in0.0 mm 0.00 in0.0 mm
06:50 AM 49.6°F9.8°C 40.3°F4.6°C 70% 3.5 mph S5.6 kmh S 6.0 mph9.7 kmh 30.28 in1025.4 mb 0.00 in0.0 mm 0.00 in0.0 mm 0.00 in0.0 mm
07:00 AM 49.6°F9.8°C 40.3°F4.6°C 70% 4.4 mph SSW7.1 kmh SSW 6.0 mph9.7 kmh 30.28 in1025.4 mb 0.00 in0.0 mm 0.00 in0.0 mm 0.00 in0.0 mm
07:10 AM 49.5°F9.7°C 40.1°F4.5°C 70% 2.9 mph SW4.7 kmh SW 4.5 mph7.2 kmh 30.28 in1025.4 mb 0.00 in0.0 mm 0.00 in0.0 mm 0.00 in0.0 mm
07:20 AM 49.3°F9.6°C 39.9°F4.4°C 70% 2.6 mph S4.2 kmh S 3.8 mph6.1 kmh 30.28 in1025.4 mb 0.00 in0.0 mm 0.00 in0.0 mm 0.00 in0.0 mm
07:30 AM 49.3°F9.6°C 40.3°F4.6°C 71% 3.5 mph SSW5.6 kmh SSW 6.9 mph11.1 kmh 30.28 in1025.4 mb 0.00 in0.0 mm 0.00 in0.0 mm 0.00 in0.0 mm
07:40 AM 49.5°F9.7°C 40.5°F4.7°C 71% 4.5 mph SW7.2 kmh SW 6.9 mph11.1 kmh 30.29 in1025.7 mb 0.00 in0.0 mm 0.00 in0.0 mm 0.00 in0.0 mm
07:50 AM 49.3°F9.6°C 40.6°F4.8°C 72% 3.9 mph SSW6.3 kmh SSW 6.0 mph9.7 kmh 30.28 in1025.4 mb 0.00 in0.0 mm 0.00 in0.0 mm 0.00 in0.0 mm
08:00 AM 49.1°F9.5°C 40.5°F4.7°C 72% 4.9 mph SW7.9 kmh SW 6.9 mph11.1 kmh 30.27 in1025.1 mb 0.00 in0.0 mm 0.00 in0.0 mm 0.00 in0.0 mm
08:10 AM 48.9°F9.4°C 40.3°F4.6°C 72% 4.4 mph SSW7.1 kmh SSW 6.0 mph9.7 kmh 30.28 in1025.4 mb 0.00 in0.0 mm 0.00 in0.0 mm 0.00 in0.0 mm
08:20 AM 48.7°F9.3°C 40.1°F4.5°C 72% 3.6 mph S5.8 kmh S 5.4 mph8.7 kmh 30.28 in1025.4 mb 0.00 in0.0 mm 0.00 in0.0 mm 0.00 in0.0 mm
08:30 AM 48.7°F9.3°C 40.1°F4.5°C 72% 3.1 mph SW5.0 kmh SW 6.0 mph9.7 kmh 30.28 in1025.4 mb 0.00 in0.0 mm 0.00 in0.0 mm 0.00 in0.0 mm
08:40 AM 48.7°F9.3°C 40.1°F4.5°C 72% 4.2 mph SSW6.8 kmh SSW 6.0 mph9.7 kmh 30.27 in1025.1 mb 0.00 in0.0 mm 0.00 in0.0 mm 0.00 in0.0 mm
08:50 AM 48.7°F9.3°C 40.1°F4.5°C 72% 3.8 mph SSW6.1 kmh SSW 5.4 mph8.7 kmh 30.27 in1025.1 mb 0.00 in0.0 mm 0.00 in0.0 mm 0.00 in0.0 mm
09:00 AM 48.7°F9.3°C 40.1°F4.5°C 72% 3.0 mph SSW4.8 kmh SSW 4.5 mph7.2 kmh 30.27 in1025.1 mb 0.00 in0.0 mm 0.00 in0.0 mm 0.00 in0.0 mm
09:10 AM 48.9°F9.4°C 40.3°F4.6°C 72% 2.7 mph S4.3 kmh S 4.5 mph7.2 kmh 30.26 in1024.7 mb 0.00 in0.0 mm 0.00 in0.0 mm 0.00 in0.0 mm
09:20 AM 49.1°F9.5°C 40.8°F4.9°C 73% 3.1 mph S5.0 kmh S 6.0 mph9.7 kmh 30.27 in1025.1 mb 0.00 in0.0 mm 0.00 in0.0 mm 0.00 in0.0 mm
09:30 AM 49.5°F9.7°C 40.8°F4.9°C 72% 8.1 mph SSW13.0 kmh SSW 13.0 mph20.9 kmh 30.26 in1024.7 mb 0.00 in0.0 mm 0.00 in0.0 mm 0.00 in0.0 mm
09:40 AM 50.2°F10.1°C 40.8°F4.9°C 70% 9.5 mph S15.3 kmh S 13.6 mph21.9 kmh 30.27 in1025.1 mb 0.00 in0.0 mm 0.00 in0.0 mm 0.00 in0.0 mm
09:50 AM 50.4°F10.2°C 41.0°F5.0°C 70% 8.7 mph S14.0 kmh S 10.7 mph17.2 kmh 30.26 in1024.7 mb 0.00 in0.0 mm 0.00 in0.0 mm 0.00 in0.0 mm
10:00 AM 50.7°F10.4°C 41.3°F5.2°C 70% 6.8 mph SSW10.9 kmh SSW 9.8 mph15.8 kmh 30.26 in1024.7 mb 0.00 in0.0 mm 0.00 in0.0 mm 0.00 in0.0 mm
10:10 AM 50.7°F10.4°C 40.2°F4.6°C 67% 6.1 mph S9.8 kmh S 13.0 mph20.9 kmh 30.27 in1025.1 mb 0.00 in0.0 mm 0.00 in0.0 mm 0.00 in0.0 mm
10:20 AM 50.9°F10.5°C 39.6°F4.2°C 65% 9.2 mph S14.8 kmh S 13.0 mph20.9 kmh 30.26 in1024.7 mb 0.00 in0.0 mm 0.00 in0.0 mm 0.00 in0.0 mm
10:30 AM 51.1°F10.6°C 38.9°F3.8°C 63% 8.9 mph S14.3 kmh S 13.6 mph21.9 kmh 30.26 in1024.7 mb 0.00 in0.0 mm 0.00 in0.0 mm 0.00 in0.0 mm
10:40 AM 51.1°F10.6°C 38.5°F3.6°C 62% 7.4 mph SW11.9 kmh SW 12.1 mph19.5 kmh 30.25 in1024.4 mb 0.00 in0.0 mm 0.00 in0.0 mm 0.00 in0.0 mm
10:50 AM 51.1°F10.6°C 38.1°F3.4°C 61% 10.0 mph SSW16.1 kmh SSW 14.5 mph23.3 kmh 30.25 in1024.4 mb 0.00 in0.0 mm 0.00 in0.0 mm 0.00 in0.0 mm
11:00 AM 51.3°F10.7°C 38.3°F3.5°C 61% 7.6 mph SSW12.2 kmh SSW 11.4 mph18.3 kmh 30.24 in1024.0 mb 0.00 in0.0 mm 0.00 in0.0 mm 0.00 in0.0 mm
11:10 AM 51.4°F10.8°C 38.4°F3.6°C 61% 7.0 mph SW11.3 kmh SW 11.4 mph18.3 kmh 30.24 in1024.0 mb 0.00 in0.0 mm 0.00 in0.0 mm 0.00 in0.0 mm
11:20 AM 51.4°F10.8°C 38.4°F3.6°C 61% 8.7 mph S14.0 kmh S 13.6 mph21.9 kmh 30.23 in1023.7 mb 0.00 in0.0 mm 0.00 in0.0 mm 0.00 in0.0 mm
11:30 AM 51.4°F10.8°C 38.9°F3.8°C 62% 7.9 mph SSW12.7 kmh SSW 11.4 mph18.3 kmh 30.24 in1024.0 mb 0.00 in0.0 mm 0.00 in0.0 mm 0.00 in0.0 mm
11:40 AM 51.4°F10.8°C 39.3°F4.1°C 63% 7.9 mph SW12.7 kmh SW 12.1 mph19.5 kmh 30.22 in1023.4 mb 0.00 in0.0 mm 0.00 in0.0 mm 0.00 in0.0 mm
11:50 AM 51.4°F10.8°C 39.3°F4.1°C 63% 8.5 mph SSW13.7 kmh SSW 9.8 mph15.8 kmh 30.22 in1023.4 mb 0.00 in0.0 mm 0.00 in0.0 mm 0.00 in0.0 mm
12:00 PM 51.6°F10.9°C 39.4°F4.1°C 63% 8.5 mph SSW13.7 kmh SSW 11.4 mph18.3 kmh 30.21 in1023.0 mb 0.00 in0.0 mm 0.00 in0.0 mm 0.00 in0.0 mm
12:10 PM 51.8°F11.0°C 40.0°F4.4°C 64% 8.4 mph SSW13.5 kmh SSW 13.6 mph21.9 kmh 30.20 in1022.7 mb 0.00 in0.0 mm 0.00 in0.0 mm 0.00 in0.0 mm
12:20 PM 51.8°F11.0°C 40.8°F4.9°C 66% 11.3 mph S18.2 kmh S 15.9 mph25.6 kmh 30.20 in1022.7 mb 0.00 in0.0 mm 0.00 in0.0 mm 0.00 in0.0 mm
12:30 PM 51.4°F10.8°C 42.0°F5.6°C 70% 12.5 mph SSW20.1 kmh SSW 14.5 mph23.3 kmh 30.19 in1022.4 mb 0.00 in0.0 mm 0.00 in0.0 mm 0.00 in0.0 mm
12:40 PM 51.3°F10.7°C 42.2°F5.7°C 71% 9.4 mph SSW15.1 kmh SSW 15.2 mph24.5 kmh 30.20 in1022.7 mb 0.00 in0.0 mm 0.00 in0.0 mm 0.00 in0.0 mm
12:50 PM 51.1°F10.6°C 42.4°F5.8°C 72% 12.6 mph SW20.3 kmh SW 16.8 mph27.0 kmh 30.19 in1022.4 mb 0.00 in0.0 mm 0.00 in0.0 mm 0.00 in0.0 mm
01:00 PM 51.4°F10.8°C 42.7°F5.9°C 72% 10.8 mph SSW17.4 kmh SSW 15.2 mph24.5 kmh 30.18 in1022.0 mb 0.00 in0.0 mm 0.00 in0.0 mm 0.00 in0.0 mm
01:10 PM 51.4°F10.8°C 43.1°F6.2°C 73% 10.3 mph SSW16.6 kmh SSW 15.9 mph25.6 kmh 30.17 in1021.7 mb 0.00 in0.0 mm 0.00 in0.0 mm 0.00 in0.0 mm
01:20 PM 51.1°F10.6°C 43.1°F6.2°C 74% 10.7 mph S17.2 kmh S 14.5 mph23.3 kmh 30.17 in1021.7 mb 0.00 in0.0 mm 0.00 in0.0 mm 0.00 in0.0 mm
01:30 PM 50.5°F10.3°C 42.9°F6.1°C 75% 9.7 mph SW15.6 kmh SW 13.0 mph20.9 kmh 30.16 in1021.3 mb 0.00 in0.0 mm 0.00 in0.0 mm 0.00 in0.0 mm
01:40 PM 50.2°F10.1°C 43.3°F6.3°C 77% 11.2 mph SSW18.0 kmh SSW 15.9 mph25.6 kmh 30.16 in1021.3 mb 0.00 in0.0 mm 0.00 in0.0 mm 0.00 in0.0 mm
01:50 PM 50.0°F10.0°C 43.4°F6.3°C 78% 10.5 mph SSW16.9 kmh SSW 22.1 mph35.6 kmh 30.16 in1021.3 mb 0.00 in0.0 mm 0.00 in0.0 mm 0.00 in0.0 mm
02:00 PM 50.0°F10.0°C 43.8°F6.6°C 79% 13.5 mph S21.7 kmh S 19.0 mph30.6 kmh 30.16 in1021.3 mb 0.01 in0.3 mm 0.01 in0.3 mm 0.01 in0.3 mm
02:10 PM 50.0°F10.0°C 43.8°F6.6°C 79% 10.6 mph S17.1 kmh S 15.9 mph25.6 kmh 30.15 in1021.0 mb 0.01 in0.3 mm 0.00 in0.0 mm 0.01 in0.3 mm
02:20 PM 50.0°F10.0°C 43.8°F6.6°C 79% 10.5 mph SW16.9 kmh SW 15.2 mph24.5 kmh 30.14 in1020.7 mb 0.01 in0.3 mm 0.00 in0.0 mm 0.01 in0.3 mm
02:30 PM 50.2°F10.1°C 43.6°F6.4°C 78% 13.7 mph S22.0 kmh S 23.5 mph37.8 kmh 30.13 in1020.3 mb 0.01 in0.3 mm 0.00 in0.0 mm 0.01 in0.3 mm
02:40 PM 50.2°F10.1°C 42.6°F5.9°C 75% 11.5 mph SSW18.5 kmh SSW 22.1 mph35.6 kmh 30.13 in1020.3 mb 0.01 in0.3 mm 0.00 in0.0 mm 0.01 in0.3 mm
02:50 PM 50.0°F10.0°C 42.4°F5.8°C 75% 13.6 mph S21.9 kmh S 22.1 mph35.6 kmh 30.13 in1020.3 mb 0.01 in0.3 mm 0.00 in0.0 mm 0.01 in0.3 mm
03:00 PM 50.2°F10.1°C 42.2°F5.7°C 74% 10.9 mph S17.5 kmh S 13.6 mph21.9 kmh 30.12 in1020.0 mb 0.00 in0.0 mm 0.00 in0.0 mm 0.01 in0.3 mm
03:10 PM 50.4°F10.2°C 42.0°F5.6°C 73% 11.3 mph SSW18.2 kmh SSW 17.4 mph28.0 kmh 30.12 in1020.0 mb 0.00 in0.0 mm 0.00 in0.0 mm 0.01 in0.3 mm
03:20 PM 50.5°F10.3°C 41.9°F5.5°C 72% 14.8 mph SW23.8 kmh SW 20.6 mph33.2 kmh 30.11 in1019.6 mb 0.00 in0.0 mm 0.00 in0.0 mm 0.01 in0.3 mm
03:30 PM 50.5°F10.3°C 41.9°F5.5°C 72% 15.1 mph SSW24.3 kmh SSW 20.6 mph33.2 kmh 30.11 in1019.6 mb 0.00 in0.0 mm 0.00 in0.0 mm 0.01 in0.3 mm
03:40 PM 50.5°F10.3°C 41.5°F5.3°C 71% 13.3 mph SSW21.4 kmh SSW 19.7 mph31.7 kmh 30.11 in1019.6 mb 0.00 in0.0 mm 0.00 in0.0 mm 0.01 in0.3 mm
03:50 PM 50.5°F10.3°C 41.5°F5.3°C 71% 16.7 mph SW26.9 kmh SW 21.3 mph34.3 kmh 30.10 in1019.3 mb 0.00 in0.0 mm 0.00 in0.0 mm 0.01 in0.3 mm
04:00 PM 50.4°F10.2°C 41.3°F5.2°C 71% 14.6 mph SW23.5 kmh SW 25.9 mph41.7 kmh 30.09 in1019.0 mb 0.00 in0.0 mm 0.00 in0.0 mm 0.01 in0.3 mm
04:10 PM 50.4°F10.2°C 41.3°F5.2°C 71% 14.3 mph S23.0 kmh S 19.0 mph30.6 kmh 30.08 in1018.6 mb 0.00 in0.0 mm 0.00 in0.0 mm 0.01 in0.3 mm
04:20 PM 50.2°F10.1°C 41.1°F5.1°C 71% 16.8 mph SSW27.0 kmh SSW 22.1 mph35.6 kmh 30.08 in1018.6 mb 0.00 in0.0 mm 0.00 in0.0 mm 0.01 in0.3 mm
04:30 PM 50.2°F10.1°C 41.1°F5.1°C 71% 16.2 mph SSW26.1 kmh SSW 22.8 mph36.7 kmh 30.07 in1018.3 mb 0.00 in0.0 mm 0.00 in0.0 mm 0.01 in0.3 mm
04:40 PM 50.4°F10.2°C 41.3°F5.2°C 71% 17.2 mph SSW27.7 kmh SSW 22.1 mph35.6 kmh 30.07 in1018.3 mb 0.00 in0.0 mm 0.00 in0.0 mm 0.01 in0.3 mm
04:50 PM 50.4°F10.2°C 41.3°F5.2°C 71% 14.3 mph SSW23.0 kmh SSW 19.7 mph31.7 kmh 30.07 in1018.3 mb 0.00 in0.0 mm 0.00 in0.0 mm 0.01 in0.3 mm
05:00 PM 50.5°F10.3°C 41.9°F5.5°C 72% 13.9 mph S22.4 kmh S 19.7 mph31.7 kmh 30.06 in1017.9 mb 0.00 in0.0 mm 0.00 in0.0 mm 0.01 in0.3 mm
05:10 PM 50.5°F10.3°C 41.9°F5.5°C 72% 14.0 mph SW22.5 kmh SW 17.4 mph28.0 kmh 30.07 in1018.3 mb 0.00 in0.0 mm 0.00 in0.0 mm 0.01 in0.3 mm
05:20 PM 50.5°F10.3°C 41.9°F5.5°C 72% 17.6 mph SSW28.3 kmh SSW 26.6 mph42.8 kmh 30.07 in1018.3 mb 0.00 in0.0 mm 0.00 in0.0 mm 0.01 in0.3 mm
05:30 PM 50.7°F10.4°C 42.0°F5.6°C 72% 15.3 mph SW24.6 kmh SW 19.7 mph31.7 kmh 30.06 in1017.9 mb 0.00 in0.0 mm 0.00 in0.0 mm 0.01 in0.3 mm
05:40 PM 50.7°F10.4°C 42.0°F5.6°C 72% 13.1 mph S21.1 kmh S 19.7 mph31.7 kmh 30.05 in1017.6 mb 0.00 in0.0 mm 0.00 in0.0 mm 0.01 in0.3 mm
05:50 PM 50.7°F10.4°C 42.0°F5.6°C 72% 13.4 mph S21.6 kmh S 15.9 mph25.6 kmh 30.05 in1017.6 mb 0.00 in0.0 mm 0.00 in0.0 mm 0.01 in0.3 mm
06:00 PM 50.7°F10.4°C 42.4°F5.8°C 73% 14.9 mph SSW24.0 kmh SSW 19.7 mph31.7 kmh 30.03 in1016.9 mb 0.00 in0.0 mm 0.00 in0.0 mm 0.01 in0.3 mm
06:10 PM 50.9°F10.5°C 42.6°F5.9°C 73% 18.0 mph SW29.0 kmh SW 22.8 mph36.7 kmh 30.03 in1016.9 mb 0.00 in0.0 mm 0.00 in0.0 mm 0.01 in0.3 mm
06:20 PM 50.9°F10.5°C 42.6°F5.9°C 73% 15.2 mph SW24.5 kmh SW 25.1 mph40.4 kmh 30.04 in1017.3 mb 0.00 in0.0 mm 0.00 in0.0 mm 0.01 in0.3 mm
06:30 PM 50.9°F10.5°C 42.6°F5.9°C 73% 13.4 mph SW21.6 kmh SW 16.8 mph27.0 kmh 30.03 in1016.9 mb 0.00 in0.0 mm 0.00 in0.0 mm 0.01 in0.3 mm
06:40 PM 50.9°F10.5°C 42.6°F5.9°C 73% 15.3 mph S24.6 kmh S 25.9 mph41.7 kmh 30.02 in1016.6 mb 0.00 in0.0 mm 0.00 in0.0 mm 0.01 in0.3 mm
06:50 PM 50.9°F10.5°C 42.6°F5.9°C 73% 15.6 mph S25.1 kmh S 18.3 mph29.5 kmh 30.02 in1016.6 mb 0.00 in0.0 mm 0.00 in0.0 mm 0.01 in0.3 mm
07:00 PM 50.9°F10.5°C 42.9°F6.1°C 74% 13.5 mph SSW21.7 kmh SSW 19.7 mph31.7 kmh 30.02 in1016.6 mb 0.00 in0.0 mm 0.00 in0.0 mm 0.01 in0.3 mm
07:10 PM 50.9°F10.5°C 43.3°F6.3°C 75% 18.5 mph SSW29.8 kmh SSW 22.8 mph36.7 kmh 30.01 in1016.3 mb 0.00 in0.0 mm 0.00 in0.0 mm 0.01 in0.3 mm
07:20 PM 50.7°F10.4°C 43.4°F6.3°C 76% 16.5 mph S26.6 kmh S 24.4 mph39.3 kmh 30.01 in1016.3 mb 0.00 in0.0 mm 0.00 in0.0 mm 0.01 in0.3 mm
07:30 PM 50.7°F10.4°C 43.8°F6.6°C 77% 16.6 mph SW26.7 kmh SW 24.4 mph39.3 kmh 30.00 in1015.9 mb 0.02 in0.5 mm 0.12 in3.0 mm 0.04 in1.0 mm
07:40 PM 50.7°F10.4°C 44.1°F6.7°C 78% 17.0 mph SW27.4 kmh SW 24.4 mph39.3 kmh 30.00 in1015.9 mb 0.02 in0.5 mm 0.00 in0.0 mm 0.04 in1.0 mm
07:50 PM 50.5°F10.3°C 43.9°F6.6°C 78% 17.4 mph SW28.0 kmh SW 23.5 mph37.8 kmh 29.99 in1015.6 mb 0.02 in0.5 mm 0.00 in0.0 mm 0.04 in1.0 mm
08:00 PM 50.4°F10.2°C 44.4°F6.9°C 80% 17.5 mph S28.2 kmh S 22.1 mph35.6 kmh 29.99 in1015.6 mb 0.04 in1.0 mm 0.02 in0.5 mm 0.05 in1.3 mm
08:10 PM 50.4°F10.2°C 44.4°F6.9°C 80% 16.5 mph S26.6 kmh S 22.8 mph36.7 kmh 29.98 in1015.2 mb 0.04 in1.0 mm 0.00 in0.0 mm 0.05 in1.3 mm
08:20 PM 50.5°F10.3°C 44.6°F7.0°C 80% 15.8 mph SW25.4 kmh SW 21.3 mph34.3 kmh 29.98 in1015.2 mb 0.04 in1.0 mm 0.00 in0.0 mm 0.05 in1.3 mm
08:30 PM 50.5°F10.3°C 44.6°F7.0°C 80% 17.0 mph SW27.4 kmh SW 23.5 mph37.8 kmh 29.98 in1015.2 mb 0.02 in0.5 mm 0.00 in0.0 mm 0.06 in1.5 mm
08:40 PM 50.7°F10.4°C 44.8°F7.1°C 80% 17.1 mph SSW27.5 kmh SSW 30.4 mph48.9 kmh 29.97 in1014.9 mb 0.04 in1.0 mm 0.12 in3.0 mm 0.07 in1.8 mm
08:50 PM 50.7°F10.4°C 44.8°F7.1°C 80% 17.1 mph SSW27.5 kmh SSW 20.6 mph33.2 kmh 29.96 in1014.6 mb 0.04 in1.0 mm 0.00 in0.0 mm 0.07 in1.8 mm
09:00 PM 50.7°F10.4°C 44.8°F7.1°C 80% 19.0 mph SSW30.6 kmh SSW 25.1 mph40.4 kmh 29.97 in1014.9 mb 0.02 in0.5 mm 0.00 in0.0 mm 0.07 in1.8 mm
09:10 PM 50.7°F10.4°C 44.8°F7.1°C 80% 17.5 mph SW28.2 kmh SW 22.8 mph36.7 kmh 29.96 in1014.6 mb 0.02 in0.5 mm 0.00 in0.0 mm 0.07 in1.8 mm
09:20 PM 50.7°F10.4°C 44.8°F7.1°C 80% 17.5 mph SSW28.2 kmh SSW 20.6 mph33.2 kmh 29.95 in1014.2 mb 0.02 in0.5 mm 0.00 in0.0 mm 0.07 in1.8 mm
09:30 PM 50.7°F10.4°C 44.8°F7.1°C 80% 16.4 mph SW26.4 kmh SW 22.1 mph35.6 kmh 29.95 in1014.2 mb 0.01 in0.3 mm 0.00 in0.0 mm 0.07 in1.8 mm
09:40 PM 50.7°F10.4°C 45.1°F7.3°C 81% 19.0 mph SSW30.6 kmh SSW 25.9 mph41.7 kmh 29.94 in1013.9 mb 0.00 in0.0 mm 0.00 in0.0 mm 0.07 in1.8 mm
09:50 PM 50.7°F10.4°C 45.1°F7.3°C 81% 20.2 mph SSW32.5 kmh SSW 27.3 mph43.9 kmh 29.94 in1013.9 mb 0.00 in0.0 mm 0.00 in0.0 mm 0.07 in1.8 mm
10:00 PM 50.7°F10.4°C 45.1°F7.3°C 81% 17.6 mph SW28.3 kmh SW 22.8 mph36.7 kmh 29.94 in1013.9 mb 0.00 in0.0 mm 0.00 in0.0 mm 0.07 in1.8 mm
10:10 PM 50.7°F10.4°C 45.1°F7.3°C 81% 19.8 mph SSW31.9 kmh SSW 23.5 mph37.8 kmh 29.93 in1013.5 mb 0.01 in0.3 mm 0.06 in1.5 mm 0.08 in2.0 mm
10:20 PM 50.7°F10.4°C 45.4°F7.4°C 82% 14.4 mph SSW23.2 kmh SSW 24.4 mph39.3 kmh 29.93 in1013.5 mb 0.01 in0.3 mm 0.00 in0.0 mm 0.08 in2.0 mm
10:30 PM 50.7°F10.4°C 45.4°F7.4°C 82% 17.1 mph SSW27.5 kmh SSW 26.6 mph42.8 kmh 29.92 in1013.2 mb 0.01 in0.3 mm 0.00 in0.0 mm 0.08 in2.0 mm
10:40 PM 50.7°F10.4°C 45.4°F7.4°C 82% 17.4 mph SSW28.0 kmh SSW 24.4 mph39.3 kmh 29.91 in1012.9 mb 0.02 in0.5 mm 0.06 in1.5 mm 0.09 in2.3 mm
10:50 PM 50.7°F10.4°C 45.4°F7.4°C 82% 16.3 mph SSW26.2 kmh SSW 20.6 mph33.2 kmh 29.90 in1012.5 mb 0.04 in1.0 mm 0.12 in3.0 mm 0.11 in2.8 mm
11:00 PM 50.9°F10.5°C 45.9°F7.7°C 83% 19.7 mph SSW31.7 kmh SSW 25.1 mph40.4 kmh 29.90 in1012.5 mb 0.05 in1.3 mm 0.01 in0.3 mm 0.12 in3.0 mm
11:10 PM 51.1°F10.6°C 46.1°F7.8°C 83% 20.4 mph SW32.8 kmh SW 27.3 mph43.9 kmh 29.89 in1012.2 mb 0.05 in1.3 mm 0.00 in0.0 mm 0.13 in3.3 mm
11:20 PM 51.1°F10.6°C 46.1°F7.8°C 83% 18.4 mph SSW29.6 kmh SSW 26.6 mph42.8 kmh 29.88 in1011.9 mb 0.06 in1.5 mm 0.06 in1.5 mm 0.14 in3.6 mm
11:30 PM 51.3°F10.7°C 46.6°F8.1°C 84% 16.9 mph SW27.2 kmh SW 22.8 mph36.7 kmh 29.88 in1011.9 mb 0.06 in1.5 mm 0.00 in0.0 mm 0.15 in3.8 mm
11:40 PM 51.4°F10.8°C 46.8°F8.2°C 84% 19.2 mph S30.9 kmh S 25.9 mph41.7 kmh 29.87 in1011.5 mb 0.09 in2.3 mm 0.18 in4.6 mm 0.19 in4.8 mm
11:50 PM 51.4°F10.8°C 46.8°F8.2°C 84% 16.8 mph S27.0 kmh S 22.8 mph36.7 kmh 29.87 in1011.5 mb 0.09 in2.3 mm 0.00 in0.0 mm 0.20 in5.1 mm